sensor_id;sensor_type;location;lat;lon;timestamp;pressure;altitude;pressure_sealevel;temperature;humidity
3844;BME280;1937;51.444;6.484;2023-04-08T08:28:16;68009.31;;;8.49;100.00
3844;BME280;1937;51.444;6.484;2023-04-08T08:30:42;68001.03;;;8.48;99.49
3844;BME280;1937;51.444;6.484;2023-04-08T08:33:09;67932.13;;;8.15;100.00
3844;BME280;1937;51.444;6.484;2023-04-08T08:35:36;67902.81;;;8.08;100.00
3844;BME280;1937;51.444;6.484;2023-04-08T08:38:03;67929.84;;;7.89;100.00
3844;BME280;1937;51.444;6.484;2023-04-08T08:40:29;67923.88;;;7.91;100.00
3844;BME280;1937;51.444;6.484;2023-04-08T08:42:56;67877.91;;;7.77;100.00
3844;BME280;1937;51.444;6.484;2023-04-08T08:45:27;67887.63;;;7.70;100.00
3844;BME280;1937;51.444;6.484;2023-04-08T08:47:54;67932.97;;;7.48;100.00
3844;BME280;1937;51.444;6.484;2023-04-08T08:50:21;67888.81;;;7.71;100.00
3844;BME280;1937;51.444;6.484;2023-04-08T08:52:49;67997.66;;;8.08;100.00
3844;BME280;1937;51.444;6.484;2023-04-08T08:55:17;67908.38;;;7.86;100.00
3844;BME280;1937;51.444;6.484;2023-04-08T08:57:44;67943.63;;;8.10;100.00
3844;BME280;1937;51.444;6.484;2023-04-08T09:00:13;67931.53;;;8.15;100.00
3844;BME280;1937;51.444;6.484;2023-04-08T09:02:42;68048.81;;;8.70;99.50
3844;BME280;1937;51.444;6.484;2023-04-08T09:05:08;68076.09;;;9.02;97.95
3844;BME280;1937;51.444;6.484;2023-04-08T09:07:36;68043.53;;;9.00;95.96
3844;BME280;1937;51.444;6.484;2023-04-08T09:10:05;68059.97;;;9.32;93.89
3844;BME280;1937;51.444;6.484;2023-04-08T09:12:32;68090.44;;;9.65;92.31
3844;BME280;1937;51.444;6.484;2023-04-08T09:15:03;68102.53;;;9.78;91.23
3844;BME280;1937;51.444;6.484;2023-04-08T09:17:34;68023.41;;;9.78;89.43
3844;BME280;1937;51.444;6.484;2023-04-08T09:20:06;68128.50;;;10.22;88.84
3844;BME280;1937;51.444;6.484;2023-04-08T09:22:57;68010.66;;;10.01;88.34
3844;BME280;1937;51.444;6.484;2023-04-08T09:25:26;67959.09;;;9.96;88.18
3844;BME280;1937;51.444;6.484;2023-04-08T09:27:53;68133.31;;;10.49;89.15
3844;BME280;1937;51.444;6.484;2023-04-08T09:30:22;68167.47;;;11.00;85.89
3844;BME280;1937;51.444;6.484;2023-04-08T09:32:50;68168.63;;;11.30;83.33
3844;BME280;1937;51.444;6.484;2023-04-08T09:35:19;68220.47;;;11.62;82.98
3844;BME280;1937;51.444;6.484;2023-04-08T09:37:46;68198.94;;;11.70;80.74
3844;BME280;1937;51.444;6.484;2023-04-08T09:40:12;68089.66;;;11.44;80.97
3844;BME280;1937;51.444;6.484;2023-04-08T09:42:43;68102.53;;;11.33;81.64
3844;BME280;1937;51.444;6.484;2023-04-08T09:45:11;68121.69;;;11.63;80.24
3844;BME280;1937;51.444;6.484;2023-04-08T09:47:46;68123.47;;;11.87;79.14
3844;BME280;1937;51.444;6.484;2023-04-08T09:50:22;68065.88;;;11.55;79.27
3844;BME280;1937;51.444;6.484;2023-04-08T09:52:52;68079.75;;;11.80;78.48
3844;BME280;1937;51.444;6.484;2023-04-08T09:55:25;68097.69;;;11.87;78.60
3844;BME280;1937;51.444;6.484;2023-04-08T09:57:57;68028.63;;;11.76;78.62
3844;BME280;1937;51.444;6.484;2023-04-08T10:00:29;68190.97;;;12.34;78.44
3844;BME280;1937;51.444;6.484;2023-04-08T10:03:01;68246.13;;;12.82;75.96
3844;BME280;1937;51.444;6.484;2023-04-08T10:05:36;68307.81;;;13.01;77.55
3844;BME280;1937;51.444;6.484;2023-04-08T10:08:04;68206.91;;;12.75;74.03
3844;BME280;1937;51.444;6.484;2023-04-08T10:10:31;68088.38;;;12.39;75.46
3844;BME280;1937;51.444;6.484;2023-04-08T10:12:59;68191.06;;;12.72;77.07
3844;BME280;1937;51.444;6.484;2023-04-08T10:15:28;68301.13;;;13.20;75.48
3844;BME280;1937;51.444;6.484;2023-04-08T10:17:55;68347.31;;;13.51;74.38
3844;BME280;1937;51.444;6.484;2023-04-08T10:20:46;68388.47;;;13.75;74.17
3844;BME280;1937;51.444;6.484;2023-04-08T10:23:14;68235.31;;;13.41;72.14
3844;BME280;1937;51.444;6.484;2023-04-08T10:25:42;68198.44;;;13.25;71.22
3844;BME280;1937;51.444;6.484;2023-04-08T10:28:24;68015.25;;;12.52;73.08
3844;BME280;1937;51.444;6.484;2023-04-08T10:30:52;68069.03;;;12.83;71.60
3844;BME280;1937;51.444;6.484;2023-04-08T10:33:21;68245.25;;;13.61;73.23
3844;BME280;1937;51.444;6.484;2023-04-08T10:35:52;68354.06;;;14.15;71.30
3844;BME280;1937;51.444;6.484;2023-04-08T10:38:20;68438.66;;;14.72;70.51
3844;BME280;1937;51.444;6.484;2023-04-08T10:40:47;68430.00;;;14.96;65.74
3844;BME280;1937;51.444;6.484;2023-04-08T10:43:15;68320.31;;;14.59;66.26
3844;BME280;1937;51.444;6.484;2023-04-08T10:45:43;68280.97;;;14.25;68.47
3844;BME280;1937;51.444;6.484;2023-04-08T10:48:13;68343.06;;;14.59;68.68
3844;BME280;1937;51.444;6.484;2023-04-08T10:50:40;68343.28;;;14.57;67.29
3844;BME280;1937;51.444;6.484;2023-04-08T10:53:09;68282.38;;;14.62;67.05
3844;BME280;1937;51.444;6.484;2023-04-08T10:55:36;68367.44;;;14.93;64.99
3844;BME280;1937;51.444;6.484;2023-04-08T10:58:06;68350.94;;;15.17;60.59
3844;BME280;1937;51.444;6.484;2023-04-08T11:00:35;68146.19;;;14.48;58.95
3844;BME280;1937;51.444;6.484;2023-04-08T11:03:03;68099.72;;;14.41;58.44
3844;BME280;1937;51.444;6.484;2023-04-08T11:05:30;68086.28;;;14.45;56.89
3844;BME280;1937;51.444;6.484;2023-04-08T11:07:57;67993.69;;;14.03;60.01
3844;BME280;1937;51.444;6.484;2023-04-08T11:10:25;68033.09;;;14.04;60.84
3844;BME280;1937;51.444;6.484;2023-04-08T11:12:53;68000.50;;;13.69;61.32
3844;BME280;1937;51.444;6.484;2023-04-08T11:15:20;67896.84;;;13.13;64.06
3844;BME280;1937;51.444;6.484;2023-04-08T11:17:47;67961.69;;;13.69;63.51
3844;BME280;1937;51.444;6.484;2023-04-08T11:20:14;67985.13;;;13.62;63.29
3844;BME280;1937;51.444;6.484;2023-04-08T11:22:40;67906.53;;;13.23;64.10
3844;BME280;1937;51.444;6.484;2023-04-08T11:25:08;67907.66;;;13.08;66.63
3844;BME280;1937;51.444;6.484;2023-04-08T11:27:37;67932.72;;;13.41;64.26
3844;BME280;1937;51.444;6.484;2023-04-08T11:30:06;67895.09;;;13.27;62.31
3844;BME280;1937;51.444;6.484;2023-04-08T11:32:33;67946.81;;;13.00;61.75
3844;BME280;1937;51.444;6.484;2023-04-08T11:35:00;67838.25;;;12.84;64.27
3844;BME280;1937;51.444;6.484;2023-04-08T11:37:35;67811.88;;;12.84;64.45
3844;BME280;1937;51.444;6.484;2023-04-08T11:40:06;67838.03;;;12.86;65.10
3844;BME280;1937;51.444;6.484;2023-04-08T11:42:33;67772.28;;;12.54;63.93
3844;BME280;1937;51.444;6.484;2023-04-08T11:45:09;67747.75;;;12.32;64.82
3844;BME280;1937;51.444;6.484;2023-04-08T11:47:36;67691.38;;;12.08;66.24
3844;BME280;1937;51.444;6.484;2023-04-08T11:50:03;67709.72;;;12.06;67.72
3844;BME280;1937;51.444;6.484;2023-04-08T11:52:43;67735.59;;;12.11;65.91
3844;BME280;1937;51.444;6.484;2023-04-08T11:55:11;67735.25;;;12.08;67.41
3844;BME280;1937;51.444;6.484;2023-04-08T11:57:46;67715.28;;;12.13;65.88
3844;BME280;1937;51.444;6.484;2023-04-08T12:00:15;67714.38;;;12.10;68.01
3844;BME280;1937;51.444;6.484;2023-04-08T12:02:41;67744.28;;;12.29;67.66
3844;BME280;1937;51.444;6.484;2023-04-08T12:05:08;67733.25;;;12.09;68.16
3844;BME280;1937;51.444;6.484;2023-04-08T12:07:35;67759.41;;;12.11;68.88
3844;BME280;1937;51.444;6.484;2023-04-08T12:10:01;67696.78;;;11.90;69.55
3844;BME280;1937;51.444;6.484;2023-04-08T12:12:28;67773.88;;;12.04;71.22
3844;BME280;1937;51.444;6.484;2023-04-08T12:14:55;67694.09;;;11.70;71.25
3844;BME280;1937;51.444;6.484;2023-04-08T12:17:23;67654.81;;;11.54;70.75
3844;BME280;1937;51.444;6.484;2023-04-08T12:19:49;67719.88;;;11.70;70.10
3844;BME280;1937;51.444;6.484;2023-04-08T12:22:16;67715.16;;;11.77;70.62
3844;BME280;1937;51.444;6.484;2023-04-08T12:24:43;67702.63;;;11.69;71.35
3844;BME280;1937;51.444;6.484;2023-04-08T12:27:09;67707.16;;;11.79;70.84
3844;BME280;1937;51.444;6.484;2023-04-08T12:29:36;67690.38;;;11.85;69.85
3844;BME280;1937;51.444;6.484;2023-04-08T12:32:03;67759.78;;;12.03;68.70
3844;BME280;1937;51.444;6.484;2023-04-08T12:34:31;67744.25;;;12.14;67.55
3844;BME280;1937;51.444;6.484;2023-04-08T12:36:58;67765.16;;;12.27;67.93
3844;BME280;1937;51.444;6.484;2023-04-08T12:39:25;67749.66;;;12.12;67.70
3844;BME280;1937;51.444;6.484;2023-04-08T12:41:52;67762.06;;;12.16;67.16
3844;BME280;1937;51.444;6.484;2023-04-08T12:44:19;67777.91;;;12.34;65.51
3844;BME280;1937;51.444;6.484;2023-04-08T12:46:46;67808.00;;;12.62;65.12
3844;BME280;1937;51.444;6.484;2023-04-08T12:49:13;67825.59;;;12.82;65.03
3844;BME280;1937;51.444;6.484;2023-04-08T12:51:41;67876.63;;;12.93;65.41
3844;BME280;1937;51.444;6.484;2023-04-08T12:54:07;67810.09;;;12.66;64.49
3844;BME280;1937;51.444;6.484;2023-04-08T12:56:34;67834.78;;;12.81;63.80
3844;BME280;1937;51.444;6.484;2023-04-08T12:59:01;67770.44;;;12.63;65.41
3844;BME280;1937;51.444;6.484;2023-04-08T13:01:27;67764.59;;;12.43;64.03
3844;BME280;1937;51.444;6.484;2023-04-08T13:03:54;67837.28;;;12.77;64.92
3844;BME280;1937;51.444;6.484;2023-04-08T13:06:21;67863.88;;;13.02;64.73
3844;BME280;1937;51.444;6.484;2023-04-08T13:08:49;67896.59;;;13.15;62.75
3844;BME280;1937;51.444;6.484;2023-04-08T13:11:16;67872.91;;;13.07;65.26
3844;BME280;1937;51.444;6.484;2023-04-08T13:13:42;67843.47;;;13.00;65.23
3844;BME280;1937;51.444;6.484;2023-04-08T13:16:10;67847.22;;;13.17;63.78
3844;BME280;1937;51.444;6.484;2023-04-08T13:18:38;67808.03;;;12.78;62.61
3844;BME280;1937;51.444;6.484;2023-04-08T13:21:05;67849.06;;;13.07;62.78
3844;BME280;1937;51.444;6.484;2023-04-08T13:23:32;67961.63;;;13.64;63.32
3844;BME280;1937;51.444;6.484;2023-04-08T13:26:00;68139.84;;;14.47;61.07
3844;BME280;1937;51.444;6.484;2023-04-08T13:28:26;68135.03;;;14.65;60.04
3844;BME280;1937;51.444;6.484;2023-04-08T13:30:53;68121.78;;;14.67;61.25
3844;BME280;1937;51.444;6.484;2023-04-08T13:33:20;68003.53;;;14.07;61.62
3844;BME280;1937;51.444;6.484;2023-04-08T13:35:47;68033.69;;;14.04;62.92
3844;BME280;1937;51.444;6.484;2023-04-08T13:38:14;67926.56;;;13.49;62.93
3844;BME280;1937;51.444;6.484;2023-04-08T13:40:40;67853.66;;;13.22;65.49
3844;BME280;1937;51.444;6.484;2023-04-08T13:43:09;67920.03;;;13.55;64.28
3844;BME280;1937;51.444;6.484;2023-04-08T13:45:36;67838.72;;;13.07;64.30
3844;BME280;1937;51.444;6.484;2023-04-08T13:48:03;67855.06;;;13.21;65.58
3844;BME280;1937;51.444;6.484;2023-04-08T13:50:30;67883.22;;;13.07;66.24
3844;BME280;1937;51.444;6.484;2023-04-08T13:52:57;67938.47;;;13.26;65.67
3844;BME280;1937;51.444;6.484;2023-04-08T13:55:23;67990.63;;;13.49;64.69
3844;BME280;1937;51.444;6.484;2023-04-08T13:57:50;67869.22;;;13.11;66.29
3844;BME280;1937;51.444;6.484;2023-04-08T14:00:18;67870.75;;;13.15;66.88
3844;BME280;1937;51.444;6.484;2023-04-08T14:02:45;67915.69;;;13.22;66.49
3844;BME280;1937;51.444;6.484;2023-04-08T14:05:12;67882.06;;;13.06;66.45
3844;BME280;1937;51.444;6.484;2023-04-08T14:07:38;67789.38;;;12.78;67.20
3844;BME280;1937;51.444;6.484;2023-04-08T14:10:06;67874.91;;;13.07;67.73
3844;BME280;1937;51.444;6.484;2023-04-08T14:12:33;67940.22;;;13.28;67.72
3844;BME280;1937;51.444;6.484;2023-04-08T14:14:59;67890.88;;;12.87;68.02
3844;BME280;1937;51.444;6.484;2023-04-08T14:17:28;67870.03;;;12.94;68.04
3844;BME280;1937;51.444;6.484;2023-04-08T14:19:55;67841.69;;;12.98;68.60
3844;BME280;1937;51.444;6.484;2023-04-08T14:22:23;67908.06;;;13.00;69.61
3844;BME280;1937;51.444;6.484;2023-04-08T14:24:50;67898.59;;;13.14;69.67
3844;BME280;1937;51.444;6.484;2023-04-08T14:27:16;67949.38;;;13.27;67.26
3844;BME280;1937;51.444;6.484;2023-04-08T14:29:43;67879.94;;;13.29;68.76
3844;BME280;1937;51.444;6.484;2023-04-08T14:32:10;67926.19;;;13.31;69.56
3844;BME280;1937;51.444;6.484;2023-04-08T14:34:38;67942.47;;;13.25;69.88
3844;BME280;1937;51.444;6.484;2023-04-08T14:37:05;67881.03;;;12.99;69.82
3844;BME280;1937;51.444;6.484;2023-04-08T14:39:32;67885.66;;;13.14;69.48
3844;BME280;1937;51.444;6.484;2023-04-08T14:41:58;67931.13;;;13.33;69.80
3844;BME280;1937;51.444;6.484;2023-04-08T14:44:26;67935.72;;;13.17;68.84
3844;BME280;1937;51.444;6.484;2023-04-08T14:46:52;67903.75;;;13.14;70.16
3844;BME280;1937;51.444;6.484;2023-04-08T14:49:19;67947.88;;;13.23;69.07
3844;BME280;1937;51.444;6.484;2023-04-08T14:51:47;67862.28;;;12.94;70.40
3844;BME280;1937;51.444;6.484;2023-04-08T14:54:14;67822.31;;;12.61;71.13
3844;BME280;1937;51.444;6.484;2023-04-08T14:56:41;67785.50;;;12.56;71.34
3844;BME280;1937;51.444;6.484;2023-04-08T14:59:07;67775.91;;;12.50;72.33
3844;BME280;1937;51.444;6.484;2023-04-08T15:01:34;67899.72;;;12.84;72.54
3844;BME280;1937;51.444;6.484;2023-04-08T15:04:00;67907.94;;;12.80;72.30
3844;BME280;1937;51.444;6.484;2023-04-08T15:06:27;67814.84;;;12.91;71.50
3844;BME280;1937;51.444;6.484;2023-04-08T15:08:56;67849.41;;;12.67;72.29
3844;BME280;1937;51.444;6.484;2023-04-08T15:11:23;67894.63;;;12.88;72.35
3844;BME280;1937;51.444;6.484;2023-04-08T15:13:50;67863.75;;;12.66;73.83
3844;BME280;1937;51.444;6.484;2023-04-08T15:16:16;67819.50;;;12.48;74.29
3844;BME280;1937;51.444;6.484;2023-04-08T15:18:43;67845.69;;;12.66;74.00
3844;BME280;1937;51.444;6.484;2023-04-08T15:21:09;67827.50;;;12.61;73.55
3844;BME280;1937;51.444;6.484;2023-04-08T15:23:36;67852.56;;;12.52;74.86
3844;BME280;1937;51.444;6.484;2023-04-08T15:26:07;67817.97;;;12.44;76.01
3844;BME280;1937;51.444;6.484;2023-04-08T15:28:34;67853.72;;;12.53;75.11
3844;BME280;1937;51.444;6.484;2023-04-08T15:31:03;67842.72;;;12.48;74.52
3844;BME280;1937;51.444;6.484;2023-04-08T15:33:29;67842.44;;;12.34;75.11
3844;BME280;1937;51.444;6.484;2023-04-08T15:35:58;67771.13;;;12.10;77.00
3844;BME280;1937;51.444;6.484;2023-04-08T15:38:27;67752.72;;;11.92;77.13
3844;BME280;1937;51.444;6.484;2023-04-08T15:40:54;67801.75;;;12.08;77.34
3844;BME280;1937;51.444;6.484;2023-04-08T15:43:22;67778.19;;;12.05;77.50
3844;BME280;1937;51.444;6.484;2023-04-08T15:45:48;67830.41;;;12.06;78.46
3844;BME280;1937;51.444;6.484;2023-04-08T15:48:15;67867.09;;;12.33;77.36
3844;BME280;1937;51.444;6.484;2023-04-08T15:50:43;67811.84;;;12.10;78.44
3844;BME280;1937;51.444;6.484;2023-04-08T15:53:10;67814.41;;;12.10;79.03
3844;BME280;1937;51.444;6.484;2023-04-08T15:55:37;67806.81;;;12.03;79.38
3844;BME280;1937;51.444;6.484;2023-04-08T15:58:04;67852.59;;;12.25;78.69
3844;BME280;1937;51.444;6.484;2023-04-08T16:00:32;67900.00;;;12.44;77.47
3844;BME280;1937;51.444;6.484;2023-04-08T16:02:59;67923.44;;;12.53;77.69
3844;BME280;1937;51.444;6.484;2023-04-08T16:05:26;67918.63;;;12.55;78.01
3844;BME280;1937;51.444;6.484;2023-04-08T16:07:52;67908.53;;;12.53;77.29
3844;BME280;1937;51.444;6.484;2023-04-08T16:10:19;67916.31;;;12.69;77.16
3844;BME280;1937;51.444;6.484;2023-04-08T16:12:45;67941.56;;;12.68;77.30
3844;BME280;1937;51.444;6.484;2023-04-08T16:15:13;67954.69;;;12.78;77.54
3844;BME280;1937;51.444;6.484;2023-04-08T16:17:42;67927.78;;;12.54;77.80
3844;BME280;1937;51.444;6.484;2023-04-08T16:20:09;67873.50;;;12.39;77.42
3844;BME280;1937;51.444;6.484;2023-04-08T16:22:36;67823.56;;;12.36;78.40
3844;BME280;1937;51.444;6.484;2023-04-08T16:25:04;67912.78;;;12.50;78.19
3844;BME280;1937;51.444;6.484;2023-04-08T16:27:31;67872.69;;;12.40;77.62
3844;BME280;1937;51.444;6.484;2023-04-08T16:29:57;67892.66;;;12.35;78.26
3844;BME280;1937;51.444;6.484;2023-04-08T16:32:24;67879.84;;;12.40;78.34
3844;BME280;1937;51.444;6.484;2023-04-08T16:34:52;67905.28;;;12.48;78.05
3844;BME280;1937;51.444;6.484;2023-04-08T16:37:18;67919.25;;;12.45;79.17
3844;BME280;1937;51.444;6.484;2023-04-08T16:39:45;67953.50;;;12.50;79.49
3844;BME280;1937;51.444;6.484;2023-04-08T16:42:12;67935.28;;;12.29;78.32
3844;BME280;1937;51.444;6.484;2023-04-08T16:44:38;67835.25;;;12.19;78.09
3844;BME280;1937;51.444;6.484;2023-04-08T16:47:06;67855.78;;;12.14;78.84
3844;BME280;1937;51.444;6.484;2023-04-08T16:49:32;67879.91;;;12.28;79.51
3844;BME280;1937;51.444;6.484;2023-04-08T16:52:00;67925.06;;;12.34;79.66
3844;BME280;1937;51.444;6.484;2023-04-08T16:54:27;67892.56;;;12.30;79.10
3844;BME280;1937;51.444;6.484;2023-04-08T16:56:54;67867.88;;;12.16;78.80
3844;BME280;1937;51.444;6.484;2023-04-08T16:59:21;67923.16;;;12.12;79.36
3844;BME280;1937;51.444;6.484;2023-04-08T17:01:47;67855.16;;;11.98;79.63
3844;BME280;1937;51.444;6.484;2023-04-08T17:04:14;67849.28;;;12.04;80.24
3844;BME280;1937;51.444;6.484;2023-04-08T17:06:41;67892.31;;;12.32;80.28
3844;BME280;1937;51.444;6.484;2023-04-08T17:09:09;67981.38;;;12.27;80.88
3844;BME280;1937;51.444;6.484;2023-04-08T17:11:36;67927.63;;;12.34;79.86
3844;BME280;1937;51.444;6.484;2023-04-08T17:14:02;67905.22;;;12.32;80.08
3844;BME280;1937;51.444;6.484;2023-04-08T17:16:29;67829.22;;;12.05;80.63
3844;BME280;1937;51.444;6.484;2023-04-08T17:18:56;67889.84;;;12.10;79.90
3844;BME280;1937;51.444;6.484;2023-04-08T17:21:22;67859.69;;;12.09;79.57
3844;BME280;1937;51.444;6.484;2023-04-08T17:23:50;67859.81;;;12.13;79.68
3844;BME280;1937;51.444;6.484;2023-04-08T17:26:18;67885.84;;;12.11;80.76
3844;BME280;1937;51.444;6.484;2023-04-08T17:28:46;67876.78;;;12.17;81.11
3844;BME280;1937;51.444;6.484;2023-04-08T17:31:13;67859.53;;;12.15;80.17
3844;BME280;1937;51.444;6.484;2023-04-08T17:33:40;67863.53;;;12.14;80.23
3844;BME280;1937;51.444;6.484;2023-04-08T17:36:06;67840.75;;;11.95;80.73
3844;BME280;1937;51.444;6.484;2023-04-08T17:38:33;67842.63;;;12.01;80.08
3844;BME280;1937;51.444;6.484;2023-04-08T17:41:04;67870.41;;;12.00;80.03
3844;BME280;1937;51.444;6.484;2023-04-08T17:43:34;67925.47;;;12.14;78.36
3844;BME280;1937;51.444;6.484;2023-04-08T17:46:01;67858.28;;;12.10;78.89
3844;BME280;1937;51.444;6.484;2023-04-08T17:48:28;67861.69;;;12.08;78.92
3844;BME280;1937;51.444;6.484;2023-04-08T17:51:01;67798.97;;;11.83;79.38
3844;BME280;1937;51.444;6.484;2023-04-08T17:53:28;67830.25;;;11.85;79.34
3844;BME280;1937;51.444;6.484;2023-04-08T17:55:54;67839.38;;;11.84;79.95
3844;BME280;1937;51.444;6.484;2023-04-08T17:58:21;67806.34;;;11.80;80.20
3844;BME280;1937;51.444;6.484;2023-04-08T18:00:49;67817.00;;;11.83;81.04
3844;BME280;1937;51.444;6.484;2023-04-08T18:03:16;67810.91;;;11.80;80.53
3844;BME280;1937;51.444;6.484;2023-04-08T18:05:43;67817.44;;;11.90;80.07
3844;BME280;1937;51.444;6.484;2023-04-08T18:08:10;67877.47;;;11.84;80.10
3844;BME280;1937;51.444;6.484;2023-04-08T18:10:37;67824.25;;;11.87;79.90
3844;BME280;1937;51.444;6.484;2023-04-08T18:13:03;67756.78;;;11.69;79.99
3844;BME280;1937;51.444;6.484;2023-04-08T18:15:33;67827.22;;;11.78;80.30
3844;BME280;1937;51.444;6.484;2023-04-08T18:18:01;67746.53;;;11.58;80.85
3844;BME280;1937;51.444;6.484;2023-04-08T18:20:33;67777.25;;;11.60;82.28
3844;BME280;1937;51.444;6.484;2023-04-08T18:23:00;67758.34;;;11.61;80.87
3844;BME280;1937;51.444;6.484;2023-04-08T18:25:28;67774.81;;;11.53;81.09
3844;BME280;1937;51.444;6.484;2023-04-08T18:27:55;67769.84;;;11.62;81.19
3844;BME280;1937;51.444;6.484;2023-04-08T18:30:22;67770.09;;;11.60;81.79
3844;BME280;1937;51.444;6.484;2023-04-08T18:32:49;67857.63;;;11.56;81.92
3844;BME280;1937;51.444;6.484;2023-04-08T18:35:17;67789.69;;;11.53;82.66
3844;BME280;1937;51.444;6.484;2023-04-08T18:37:43;67732.91;;;11.37;81.98
3844;BME280;1937;51.444;6.484;2023-04-08T18:40:11;67771.97;;;11.55;82.72
3844;BME280;1937;51.444;6.484;2023-04-08T18:42:38;67735.50;;;11.37;83.82
3844;BME280;1937;51.444;6.484;2023-04-08T18:45:05;67806.91;;;11.54;82.66
3844;BME280;1937;51.444;6.484;2023-04-08T18:47:32;67764.88;;;11.44;81.95
3844;BME280;1937;51.444;6.484;2023-04-08T18:49:59;67791.13;;;11.40;82.15
3844;BME280;1937;51.444;6.484;2023-04-08T18:52:27;67783.25;;;11.47;82.84
3844;BME280;1937;51.444;6.484;2023-04-08T18:54:55;67775.28;;;11.49;83.11
3844;BME280;1937;51.444;6.484;2023-04-08T18:57:23;67800.59;;;11.53;82.40
3844;BME280;1937;51.444;6.484;2023-04-08T18:59:50;67753.28;;;11.39;82.90
3844;BME280;1937;51.444;6.484;2023-04-08T19:02:17;67775.53;;;11.47;83.39
3844;BME280;1937;51.444;6.484;2023-04-08T19:04:43;67773.28;;;11.49;82.15
3844;BME280;1937;51.444;6.484;2023-04-08T19:07:10;67752.81;;;11.43;82.00
3844;BME280;1937;51.444;6.484;2023-04-08T19:09:38;67778.75;;;11.36;83.29
3844;BME280;1937;51.444;6.484;2023-04-08T19:12:05;67735.06;;;11.30;83.82
3844;BME280;1937;51.444;6.484;2023-04-08T19:14:32;67780.19;;;11.51;83.23
3844;BME280;1937;51.444;6.484;2023-04-08T19:16:59;67833.97;;;11.60;82.75
3844;BME280;1937;51.444;6.484;2023-04-08T19:19:25;67811.13;;;11.51;82.56
3844;BME280;1937;51.444;6.484;2023-04-08T19:21:52;67774.31;;;11.30;81.91
3844;BME280;1937;51.444;6.484;2023-04-08T19:24:19;67744.31;;;11.33;82.88
3844;BME280;1937;51.444;6.484;2023-04-08T19:26:47;67797.31;;;11.48;81.93
3844;BME280;1937;51.444;6.484;2023-04-08T19:29:15;67782.69;;;11.46;82.77
3844;BME280;1937;51.444;6.484;2023-04-08T19:31:43;67764.28;;;11.44;81.99
3844;BME280;1937;51.444;6.484;2023-04-08T19:34:10;67778.94;;;11.45;82.36
3844;BME280;1937;51.444;6.484;2023-04-08T19:36:37;67776.16;;;11.36;82.49
3844;BME280;1937;51.444;6.484;2023-04-08T19:39:04;67750.28;;;11.32;83.70
3844;BME280;1937;51.444;6.484;2023-04-08T19:41:31;67791.97;;;11.39;83.69
3844;BME280;1937;51.444;6.484;2023-04-08T19:43:59;67796.88;;;11.41;82.99
3844;BME280;1937;51.444;6.484;2023-04-08T19:46:27;67798.47;;;11.49;83.55
3844;BME280;1937;51.444;6.484;2023-04-08T19:48:53;67782.09;;;11.46;82.77
3844;BME280;1937;51.444;6.484;2023-04-08T19:51:23;67790.59;;;11.56;82.55
3844;BME280;1937;51.444;6.484;2023-04-08T19:53:49;67808.28;;;11.64;81.72
3844;BME280;1937;51.444;6.484;2023-04-08T19:56:16;67827.97;;;11.61;82.14
3844;BME280;1937;51.444;6.484;2023-04-08T19:58:42;67818.88;;;11.51;83.17
3844;BME280;1937;51.444;6.484;2023-04-08T20:01:10;67782.72;;;11.62;82.86
3844;BME280;1937;51.444;6.484;2023-04-08T20:03:38;67815.31;;;11.59;82.38
3844;BME280;1937;51.444;6.484;2023-04-08T20:06:06;67802.75;;;11.62;82.40
3844;BME280;1937;51.444;6.484;2023-04-08T20:08:33;67780.44;;;11.49;83.13
3844;BME280;1937;51.444;6.484;2023-04-08T20:10:59;67785.59;;;11.49;82.77
3844;BME280;1937;51.444;6.484;2023-04-08T20:13:26;67829.22;;;11.40;83.33
3844;BME280;1937;51.444;6.484;2023-04-08T20:15:53;67749.25;;;11.24;83.81
3844;BME280;1937;51.444;6.484;2023-04-08T20:18:21;67756.41;;;11.24;84.30
3844;BME280;1937;51.444;6.484;2023-04-08T20:20:48;67739.34;;;11.16;85.08
3844;BME280;1937;51.444;6.484;2023-04-08T20:23:15;67764.41;;;11.11;85.36
3844;BME280;1937;51.444;6.484;2023-04-08T20:25:42;67772.25;;;11.15;85.50
3844;BME280;1937;51.444;6.484;2023-04-08T20:28:09;67725.09;;;11.05;85.96
3844;BME280;1937;51.444;6.484;2023-04-08T20:30:35;67772.25;;;11.15;85.10
3844;BME280;1937;51.444;6.484;2023-04-08T20:33:02;67767.31;;;11.24;84.83
3844;BME280;1937;51.444;6.484;2023-04-08T20:35:30;67818.44;;;11.33;83.83
3844;BME280;1937;51.444;6.484;2023-04-08T20:37:57;67816.22;;;11.35;83.37
3844;BME280;1937;51.444;6.484;2023-04-08T20:40:24;67749.72;;;11.20;83.77
